createdAt,value
2019-05-28T00:00:45.717Z,1.70
2019-05-28T00:05:39.043Z,2.07
2019-05-28T00:10:32.367Z,2.10
2019-05-28T00:15:25.704Z,2.23
2019-05-28T00:20:19.249Z,2.00
2019-05-28T00:25:12.810Z,1.70
2019-05-28T00:30:19.389Z,1.80
2019-05-28T00:34:59.697Z,1.27
2019-05-28T00:39:53.013Z,1.40
2019-05-28T00:44:46.380Z,1.77
2019-05-28T00:49:39.838Z,1.90
2019-05-28T00:54:33.152Z,1.50
2019-05-28T00:59:26.703Z,1.30
2019-05-28T01:04:20.021Z,1.70
2019-05-28T01:09:13.650Z,1.50
2019-05-28T01:14:06.983Z,1.33
2019-05-28T01:19:00.420Z,1.80
2019-05-28T01:23:53.750Z,1.60
2019-05-28T01:28:47.106Z,1.40
2019-05-28T01:33:40.560Z,1.87
2019-05-28T01:38:34.258Z,1.57
2019-05-28T01:43:27.572Z,1.53
2019-05-28T01:48:20.905Z,1.43
2019-05-28T01:53:14.409Z,1.40
2019-05-28T01:58:07.879Z,1.67
2019-05-28T02:03:01.475Z,1.33
2019-05-28T02:07:54.820Z,1.53
2019-05-28T02:12:48.201Z,1.30
2019-05-28T02:17:41.526Z,1.20
2019-05-28T02:22:35.255Z,1.40
2019-05-28T02:27:28.584Z,1.37
2019-05-28T02:32:22.321Z,1.57
2019-05-28T02:37:15.665Z,1.97
2019-05-28T02:42:09.078Z,1.50
2019-05-28T02:47:02.784Z,1.23
2019-05-28T02:51:56.141Z,1.23
2019-05-28T02:56:49.706Z,1.30
2019-05-28T03:01:44.996Z,0.90
2019-05-28T03:06:37.089Z,1.20
2019-05-28T03:11:30.592Z,1.20
2019-05-28T03:16:23.939Z,1.17
2019-05-28T03:21:17.691Z,1.00
2019-05-28T03:26:11.082Z,1.00
2019-05-28T03:31:04.436Z,1.23
2019-05-28T03:35:57.763Z,1.20
2019-05-28T03:40:51.174Z,1.40
2019-05-28T03:45:44.523Z,1.13
2019-05-28T03:50:37.944Z,1.10
2019-05-28T03:55:31.317Z,1.40
2019-05-28T04:00:25.189Z,1.00
2019-05-28T04:05:18.595Z,0.97
2019-05-28T04:10:14.761Z,1.00
2019-05-28T04:15:08.236Z,1.00
2019-05-28T04:20:06.208Z,1.30
2019-05-28T04:24:59.539Z,0.73
2019-05-28T04:29:52.887Z,0.90
2019-05-28T04:34:46.230Z,0.83
2019-05-28T04:39:39.675Z,0.83
2019-05-28T04:44:33.012Z,1.03
2019-05-28T04:49:26.469Z,0.90
2019-05-28T04:54:19.806Z,0.70
2019-05-28T04:59:13.137Z,0.90
2019-05-28T05:04:06.479Z,0.90
2019-05-28T05:09:02.513Z,0.83
2019-05-28T05:13:55.854Z,0.80
2019-05-28T05:18:49.526Z,1.00
2019-05-28T05:23:43.027Z,0.63
2019-05-28T05:28:36.367Z,1.00
2019-05-28T05:33:29.947Z,1.37
2019-05-28T05:38:23.363Z,0.87
2019-05-28T05:43:17.016Z,0.70
2019-05-28T05:48:10.373Z,0.70
2019-05-28T05:53:03.828Z,1.03
2019-05-28T05:57:57.149Z,0.93
2019-05-28T06:02:50.516Z,0.90
2019-05-28T06:07:47.077Z,0.90
2019-05-28T06:12:40.386Z,0.97
2019-05-28T06:17:33.763Z,0.90
2019-05-28T06:22:27.432Z,0.90
2019-05-28T06:27:20.832Z,1.40
2019-05-28T06:32:14.637Z,0.60
2019-05-28T06:37:07.938Z,0.80
2019-05-28T06:42:01.309Z,0.70
2019-05-28T06:46:54.657Z,0.90
2019-05-28T06:51:48.354Z,0.70
2019-05-28T06:56:41.633Z,0.80
2019-05-28T07:01:35.384Z,0.80
2019-05-28T07:06:28.955Z,0.90
2019-05-28T07:11:22.914Z,0.83
2019-05-28T07:16:16.232Z,0.63
2019-05-28T07:21:10.137Z,0.70
2019-05-28T07:26:03.445Z,0.73
2019-05-28T07:30:56.760Z,1.00
2019-05-28T07:35:50.098Z,0.80
2019-05-28T07:40:43.687Z,0.97
2019-05-28T07:45:37.011Z,1.30
2019-05-28T07:50:30.438Z,1.10
2019-05-28T07:55:23.739Z,1.60
2019-05-28T08:00:17.630Z,0.97
2019-05-28T08:05:11.012Z,1.17
2019-05-28T08:10:04.989Z,0.70
2019-05-28T08:14:58.309Z,1.00
2019-05-28T08:19:51.894Z,0.93
2019-05-28T08:24:45.259Z,1.10
2019-05-28T08:29:38.695Z,0.87
2019-05-28T08:34:32.142Z,1.23
2019-05-28T08:39:26.039Z,1.17
2019-05-28T08:44:19.334Z,0.77
2019-05-28T08:49:12.792Z,1.00
2019-05-28T08:54:06.137Z,1.37
2019-05-28T08:58:59.558Z,1.27
2019-05-28T09:03:52.864Z,1.70
2019-05-28T09:08:46.630Z,1.17
2019-05-28T09:13:40.346Z,0.60
2019-05-28T09:18:33.652Z,1.00
2019-05-28T09:23:26.948Z,1.20
2019-05-28T09:28:30.179Z,1.00
2019-05-28T09:33:13.843Z,0.80
2019-05-28T09:38:07.159Z,1.20
2019-05-28T09:43:00.577Z,0.70
2019-05-28T09:47:55.335Z,1.00
2019-05-28T09:52:54.289Z,0.70
2019-05-28T09:57:47.287Z,0.60
2019-05-28T10:02:34.419Z,0.70
2019-05-28T10:07:28.349Z,1.00
2019-05-28T10:12:21.775Z,0.90
2019-05-28T10:17:15.091Z,0.90
2019-05-28T10:22:08.543Z,1.00
2019-05-28T10:27:01.845Z,0.97
2019-05-28T10:31:55.282Z,1.07
2019-05-28T10:36:48.620Z,0.80
2019-05-28T10:41:42.046Z,1.00
2019-05-28T10:46:35.354Z,0.70
2019-05-28T10:51:28.814Z,0.90
2019-05-28T10:56:22.122Z,1.33
2019-05-28T11:01:15.563Z,1.13
2019-05-28T11:06:08.876Z,1.00
2019-05-28T11:11:02.320Z,0.93
2019-05-28T11:15:55.633Z,1.30
2019-05-28T11:20:49.379Z,1.10
2019-05-28T11:25:42.687Z,0.73
2019-05-28T11:30:36.155Z,0.83
2019-05-28T11:35:29.456Z,0.97
2019-05-28T11:40:23.827Z,0.80
2019-05-28T11:45:18.176Z,0.80
2019-05-28T11:50:10.585Z,0.80
2019-05-28T11:55:04.415Z,0.90
2019-05-28T11:59:57.744Z,1.17
2019-05-28T12:04:51.076Z,0.90
2019-05-28T12:09:44.717Z,0.80
2019-05-28T12:14:38.113Z,1.10
2019-05-28T12:19:31.781Z,1.03
2019-05-28T12:24:28.224Z,1.10
2019-05-28T12:29:18.537Z,1.10
2019-05-28T12:34:12.777Z,1.30
2019-05-28T12:39:07.064Z,1.33
2019-05-28T12:44:00.421Z,1.17
2019-05-28T12:48:53.784Z,1.70
2019-05-28T12:53:50.618Z,1.30
2019-05-28T12:58:43.107Z,0.80
2019-05-28T13:03:33.800Z,0.70
2019-05-28T13:08:27.101Z,0.60
2019-05-28T13:13:20.503Z,0.60
2019-05-28T13:18:13.822Z,0.57
2019-05-28T13:23:07.264Z,0.40
2019-05-28T13:28:00.582Z,0.40
2019-05-28T13:32:54.053Z,0.57
2019-05-28T13:37:47.371Z,0.60
2019-05-28T13:42:41.075Z,0.47
2019-05-28T13:47:34.529Z,0.50
2019-05-28T13:52:27.825Z,0.53
2019-05-28T13:57:21.174Z,0.53
2019-05-28T14:02:14.519Z,0.30
2019-05-28T14:07:08.129Z,0.40
2019-05-28T14:12:01.660Z,0.30
2019-05-28T14:16:55.000Z,0.60
2019-05-28T14:21:48.407Z,0.40
2019-05-28T14:26:41.766Z,0.40
2019-05-28T14:31:35.163Z,0.40
2019-05-28T14:36:28.519Z,0.40
2019-05-28T14:41:21.931Z,0.63
2019-05-28T14:46:15.271Z,0.30
2019-05-28T14:51:08.656Z,0.40
2019-05-28T14:56:02.021Z,0.37
2019-05-28T15:00:55.454Z,0.47
2019-05-28T15:05:48.802Z,0.47
2019-05-28T15:10:42.232Z,0.50
2019-05-28T15:15:36.671Z,0.40
2019-05-28T15:20:29.256Z,0.40
2019-05-28T15:25:22.606Z,0.30
2019-05-28T15:30:16.091Z,0.30
2019-05-28T15:35:09.510Z,0.40
2019-05-28T15:40:03.956Z,0.70
2019-05-28T15:44:57.272Z,0.40
2019-05-28T15:49:50.774Z,0.40
2019-05-28T15:54:44.112Z,0.30
2019-05-28T15:59:37.610Z,0.37
2019-05-28T16:04:30.951Z,0.40
2019-05-28T16:09:24.287Z,0.50
2019-05-28T16:14:17.588Z,0.70
2019-05-28T16:19:10.900Z,0.70
2019-05-28T16:24:04.191Z,0.70
2019-05-28T16:28:57.490Z,0.57
2019-05-28T16:33:50.824Z,0.67
2019-05-28T16:38:44.103Z,0.60
2019-05-28T16:43:37.627Z,0.67
2019-05-28T16:48:30.954Z,0.57
2019-05-28T16:53:24.420Z,0.53
2019-05-28T16:58:17.772Z,0.60
2019-05-28T17:03:11.159Z,0.53
2019-05-28T17:08:04.512Z,0.60
2019-05-28T17:12:58.235Z,0.40
2019-05-28T17:17:51.538Z,0.50
2019-05-28T17:22:44.965Z,0.40
2019-05-28T17:27:38.361Z,0.67
2019-05-28T17:32:31.771Z,0.60
2019-05-28T17:37:25.119Z,0.50
2019-05-28T17:42:19.102Z,0.50
2019-05-28T17:47:12.455Z,0.60
2019-05-28T17:52:06.164Z,0.40
2019-05-28T17:56:59.948Z,0.47
2019-05-28T18:01:53.294Z,0.50
2019-05-28T18:06:46.784Z,0.50
2019-05-28T18:11:40.131Z,0.40
2019-05-28T18:16:33.479Z,0.50
2019-05-28T18:21:27.046Z,0.43
2019-05-28T18:26:20.402Z,0.50
2019-05-28T18:31:13.745Z,0.40
2019-05-28T18:36:07.232Z,0.50
2019-05-28T18:41:00.896Z,0.50
2019-05-28T18:45:54.229Z,0.40
2019-05-28T18:50:47.646Z,0.50
2019-05-28T18:55:41.684Z,0.47
2019-05-28T19:00:35.334Z,0.60
2019-05-28T19:05:28.729Z,0.70
2019-05-28T19:10:22.370Z,0.80
2019-05-28T19:15:15.727Z,0.60
2019-05-28T19:20:09.167Z,0.50
2019-05-28T19:25:02.865Z,0.43
2019-05-28T19:29:56.787Z,0.50
2019-05-28T19:34:50.139Z,0.40
2019-05-28T19:39:43.579Z,0.97
2019-05-28T19:44:36.910Z,0.50
2019-05-28T19:49:30.668Z,0.40
2019-05-28T19:54:24.724Z,0.60
2019-05-28T19:59:18.322Z,0.60
2019-05-28T20:04:11.648Z,0.60
2019-05-28T20:09:06.031Z,0.80
2019-05-28T20:13:59.319Z,0.60
2019-05-28T20:18:53.596Z,0.70
2019-05-28T20:23:46.132Z,0.80
2019-05-28T20:28:39.434Z,0.70
2019-05-28T20:33:32.899Z,0.73
2019-05-28T20:38:26.181Z,0.60
2019-05-28T20:43:19.647Z,0.57
2019-05-28T20:48:12.945Z,0.53
2019-05-28T20:53:06.403Z,0.50
2019-05-28T20:57:59.752Z,0.70
2019-05-28T21:02:53.856Z,0.63
2019-05-28T21:07:47.866Z,0.83
2019-05-28T21:12:44.559Z,0.80
2019-05-28T21:17:34.253Z,0.50
2019-05-28T21:22:27.611Z,0.80
2019-05-28T21:27:21.298Z,0.90
2019-05-28T21:32:16.408Z,0.70
2019-05-28T21:37:09.836Z,0.50
2019-05-28T21:42:03.996Z,0.50
2019-05-28T21:46:58.362Z,0.80
2019-05-28T21:51:51.014Z,0.77
2019-05-28T21:56:44.454Z,0.77
2019-05-28T22:01:38.349Z,0.90
2019-05-28T22:06:32.670Z,1.10
2019-05-28T22:11:26.825Z,0.90
2019-05-28T22:16:20.193Z,0.80
2019-05-28T22:21:14.641Z,0.65
2019-05-28T22:26:09.599Z,0.73
2019-05-28T22:31:03.871Z,1.33
2019-05-28T22:35:57.212Z,1.07
2019-05-28T22:40:50.892Z,0.60
2019-05-28T22:45:44.449Z,0.63
2019-05-28T22:50:37.776Z,0.53
2019-05-28T22:55:31.109Z,0.87
2019-05-28T23:00:24.709Z,0.67
2019-05-28T23:05:18.022Z,0.57
2019-05-28T23:10:11.359Z,0.80
2019-05-28T23:15:05.945Z,1.00
2019-05-28T23:19:58.123Z,0.70
2019-05-28T23:24:51.497Z,0.80
2019-05-28T23:29:45.005Z,0.60
2019-05-28T23:34:38.357Z,0.60
2019-05-28T23:39:31.738Z,0.90
2019-05-28T23:44:25.082Z,0.50
2019-05-28T23:49:18.463Z,0.70
2019-05-28T23:54:11.791Z,0.70
2019-05-28T23:59:05.672Z,0.60
